createdAt,value
2019-04-11T00:05:47.342Z,5531
2019-04-11T00:15:46.099Z,5531
2019-04-11T00:25:45.315Z,5531
2019-04-11T00:35:44.519Z,5531
2019-04-11T00:45:43.728Z,5531
2019-04-11T00:55:43.695Z,5531
2019-04-11T01:05:42.155Z,5531
2019-04-11T01:15:41.370Z,5531
2019-04-11T01:35:10.935Z,5531
2019-04-11T01:46:00.407Z,5531
2019-04-11T01:55:59.610Z,5531
2019-04-11T02:05:59.159Z,5531
2019-04-11T02:21:35.772Z,5531
2019-04-11T02:38:24.810Z,5531
2019-04-11T02:48:24.514Z,5531.1
2019-04-11T02:58:24.969Z,5531.4
2019-04-11T03:08:24.015Z,5531.6
2019-04-11T03:18:40.183Z,5531.8
2019-04-11T03:28:25.363Z,5532
2019-04-11T03:38:46.248Z,5532.1
2019-04-11T03:48:40.029Z,5532.2
2019-04-11T03:58:26.040Z,5532.4
2019-04-11T04:08:26.947Z,5532.6
2019-04-11T04:18:24.561Z,5532.9
2019-04-11T04:28:23.879Z,5533.1
2019-04-11T04:38:23.510Z,5533.3
2019-04-11T04:48:25.103Z,5533.5
2019-04-11T04:58:22.277Z,5533.8
2019-04-11T05:08:20.768Z,5534
2019-04-11T05:18:20.747Z,5534.3
2019-04-11T05:28:19.239Z,5534.4
2019-04-11T05:38:18.876Z,5534.4
2019-04-11T05:55:32.727Z,5534.4
2019-04-11T06:05:33.263Z,5534.4
2019-04-11T06:15:31.314Z,5534.4
2019-04-11T06:25:30.973Z,5534.4
2019-04-11T06:35:30.293Z,5534.4
2019-04-11T06:45:29.380Z,5534.4
2019-04-11T06:55:28.927Z,5534.4
2019-04-11T07:06:05.016Z,5534.4
2019-04-11T07:16:03.096Z,5534.4
2019-04-11T07:26:02.592Z,5534.4
2019-04-11T07:36:01.715Z,5534.4
2019-04-11T07:46:00.723Z,5534.4
2019-04-11T07:56:01.989Z,5534.4
2019-04-11T08:05:59.205Z,5534.4
2019-04-11T08:15:58.488Z,5534.4
2019-04-11T08:25:57.809Z,5534.4
2019-04-11T08:35:58.308Z,5534.4
2019-04-11T08:45:56.372Z,5534.4
2019-04-11T08:55:57.613Z,5534.4
2019-04-11T09:05:55.287Z,5534.4
2019-04-11T09:15:54.086Z,5534.4
2019-04-11T09:25:54.665Z,5534.4
2019-04-11T09:35:52.512Z,5534.4
2019-04-11T09:45:52.546Z,5534.4
2019-04-11T09:55:50.932Z,5534.4
2019-04-11T10:05:51.247Z,5534.4
2019-04-11T10:15:49.361Z,5534.4
2019-04-11T10:25:49.644Z,5534.4
2019-04-11T10:35:48.316Z,5534.4
2019-04-11T10:45:46.980Z,5534.4
2019-04-11T10:55:46.214Z,5534.4
2019-04-11T11:05:45.395Z,5534.4
2019-04-11T11:15:44.609Z,5534.4
2019-04-11T11:25:48.037Z,5534.4
2019-04-11T11:35:43.097Z,5534.4
2019-04-11T11:45:46.798Z,5534.6
2019-04-11T11:55:41.458Z,5534.8
2019-04-11T12:05:44.477Z,5534.8
2019-04-11T12:15:39.879Z,5534.8
2019-04-11T12:25:39.077Z,5534.8
2019-04-11T12:35:38.287Z,5534.8
2019-04-11T12:45:37.497Z,5534.8
2019-04-11T12:55:36.710Z,5534.8
2019-04-11T13:05:35.915Z,5534.8
2019-04-11T13:15:35.123Z,5534.8
2019-04-11T13:25:34.336Z,5534.8
2019-04-11T13:35:33.545Z,5534.8
2019-04-11T13:45:32.742Z,5534.8
2019-04-11T13:55:31.958Z,5534.8
2019-04-11T14:05:31.171Z,5534.8
2019-04-11T14:15:30.370Z,5534.8
2019-04-11T14:25:29.678Z,5534.8
2019-04-11T14:35:28.794Z,5534.8
2019-04-11T14:45:27.993Z,5534.8
2019-04-11T14:55:27.201Z,5534.8
2019-04-11T15:05:26.418Z,5534.8
2019-04-11T15:15:25.625Z,5534.8
2019-04-11T15:25:24.834Z,5534.8
2019-04-11T15:35:24.038Z,5534.8
2019-04-11T15:45:23.260Z,5534.8
2019-04-11T15:55:22.461Z,5535
2019-04-11T16:05:21.684Z,5535.2
2019-04-11T16:15:23.122Z,5535.5
2019-04-11T16:25:20.095Z,5535.7
2019-04-11T16:35:19.310Z,5535.9
2019-04-11T16:45:18.514Z,5535.9
2019-04-11T16:55:17.719Z,5535.9
2019-04-11T17:05:16.937Z,5535.9
2019-04-11T17:15:16.150Z,5535.9
2019-04-11T17:25:17.554Z,5536.2
2019-04-11T17:35:15.386Z,5536.3
2019-04-11T17:45:13.770Z,5536.3
2019-04-11T17:55:12.993Z,5536.3
2019-04-11T18:05:12.191Z,5536.3
2019-04-11T18:15:11.418Z,5536.6
2019-04-11T18:25:10.621Z,5536.7
2019-04-11T18:35:09.831Z,5536.7
2019-04-11T18:45:09.044Z,5536.7
2019-04-11T18:55:08.249Z,5536.9
2019-04-11T19:05:07.467Z,5537.2
2019-04-11T19:15:06.676Z,5537.3
2019-04-11T19:25:05.888Z,5537.3
2019-04-11T19:35:05.102Z,5537.3
2019-04-11T19:45:04.306Z,5537.3
2019-04-11T19:55:16.924Z,5537
2019-04-11T20:05:16.132Z,5537
2019-04-11T20:15:15.344Z,5537
2019-04-11T20:25:16.194Z,5537
2019-04-11T20:35:13.757Z,5537
2019-04-11T20:45:12.972Z,5537
2019-04-11T20:55:12.228Z,5537
2019-04-11T21:14:03.408Z,5537
2019-04-11T21:24:02.581Z,5537
2019-04-11T21:34:02.414Z,5537
2019-04-11T21:44:00.993Z,5537
2019-04-11T21:54:00.200Z,5537
2019-04-11T22:03:59.421Z,5537
2019-04-11T22:13:58.669Z,5537
2019-04-11T22:23:57.964Z,5537
2019-04-11T22:33:57.825Z,5537
2019-04-11T22:43:56.546Z,5537
2019-04-11T22:54:00.392Z,5537
2019-04-11T23:03:55.135Z,5537
2019-04-11T23:13:54.354Z,5537
2019-04-11T23:23:53.553Z,5537
2019-04-11T23:33:52.767Z,5537
2019-04-11T23:43:51.979Z,5537
2019-04-11T23:53:51.187Z,5537
